Date,TemperatureHighF,TemperatureAvgF,TemperatureLowF,DewpointHighF,DewpointAvgF,DewpointLowF,HumidityHigh,HumidityAvg,HumidityLow,PressureMaxIn,PressureMinIn,WindSpeedMaxMPH,WindSpeedAvgMPH,GustSpeedMaxMPH,PrecipitationSumIn
2013-3-1,36,33,29,31,28,24,94,84,71,29.90,29.72,13,3,15,0.00
2013-3-2,29,26,24,24,22,20,87,81,71,29.90,29.83,15,3,16,0.00
2013-3-3,30,26,23,22,20,19,93,80,70,29.92,29.82,22,5,23,0.00
2013-3-4,32,26,21,22,18,15,80,71,62,30.06,29.91,24,7,28,0.00
2013-3-5,42,32,24,28,22,16,82,67,41,30.09,29.82,12,2,14,0.00
2013-3-6,36,32,29,34,31,28,100,95,82,30.04,29.70,28,6,28,0.11
2013-3-7,41,35,32,31,28,25,87,76,63,30.18,30.04,19,5,21,0.19
2013-3-8,41,37,29,30,28,24,92,70,64,30.31,30.18,28,6,29,0.00
2013-3-9,52,41,29,32,27,22,77,59,42,30.38,30.28,10,1,10,0.00
2013-3-10,57,49,41,34,28,23,53,44,36,30.30,30.19,9,0,12,0.00
2013-3-11,53,45,36,48,38,24,98,80,46,30.21,29.97,7,1,9,0.00
2013-3-12,38,36,35,32,30,29,81,80,79,29.94,29.89,19,8,21,0.78
2013-3-13,40,34,27,30,26,19,85,71,52,30.04,29.90,23,5,25,0.00
2013-3-14,35,29,24,22,19,17,86,66,50,30.12,30.02,25,8,29,0.00
2013-3-15,48,38,28,37,27,19,75,65,52,30.10,29.80,18,4,23,0.00
2013-3-16,44,35,30,36,32,29,100,91,69,29.96,29.69,8,1,10,0.09
2013-3-17,35,31,29,31,27,23,100,84,65,30.28,29.94,12,1,13,0.00
2013-3-18,31,28,25,29,25,20,99,87,72,30.32,29.91,12,2,12,0.00
2013-3-19,48,36,29,37,29,20,100,79,39,29.92,29.72,20,4,23,0.31
2013-3-20,42,34,27,26,20,17,79,58,39,29.97,29.79,22,5,27,0.00
2013-3-21,30,25,22,24,15,11,86,67,52,29.90,29.77,19,4,25,0.00
2013-3-22,34,28,22,22,19,13,79,70,60,30.01,29.86,19,5,19,0.00
2013-3-23,43,36,26,27,24,21,80,63,49,30.04,29.94,19,4,22,0.00
2013-3-24,37,32,28,28,23,21,83,68,61,30.02,29.66,7,0,10,0.00
2013-3-25,33,30,28,32,29,26,99,96,79,29.71,29.54,6,0,6,0.15
2013-3-26,43,35,29,33,30,27,100,85,55,30.01,29.71,19,3,19,0.35
2013-3-27,40,35,32,34,30,28,92,80,64,30.12,29.98,22,5,22,0.00
2013-3-28,42,36,33,32,30,27,92,78,60,30.24,30.07,21,4,22,0.01
2013-3-29,49,40,33,36,31,27,84,68,51,30.26,30.15,15,2,16,0.00
2013-3-30,52,44,37,31,29,24,74,55,39,30.23,30.11,10,1,12,0.00
2013-3-31,45,42,39,44,37,24,100,83,43,30.11,29.74,10,1,10,0.24